Time;durP1;ratioP1;P1;durP2;ratioP2;P2;SDS_P1;SDS_P2;PMS_P1;PMS_P2;Temp;Humidity;BMP_temperature;BMP_pressure;BME280_temperature;BME280_humidity;BME280_pressure;Samples;Min_cycle;Max_cycle;Signal;HPM_P1;HPM_P2
2023/03/08 07:35:03;;;;;;;4.30;4.10;;;1.90;99.90;3.00;98972.00;;;;6196611;22;1369608;-66
2023/03/08 07:37:31;;;;;;;3.53;3.43;;;2.00;99.90;3.10;98961.00;;;;6159875;23;20166;-66
2023/03/08 07:40:00;;;;;;;6.33;5.83;;;2.00;99.90;3.20;98858.00;;;;6187049;23;20178;-65
2023/03/08 07:42:34;;;;;;;4.03;3.83;;;1.90;99.90;3.20;98956.00;;;;6186847;23;20167;-65
2023/03/08 07:45:03;;;;;;;3.90;3.77;;;1.90;99.90;3.10;98891.00;;;;6159843;23;20254;-66
2023/03/08 07:47:31;;;;;;;4.67;4.37;;;1.90;99.90;3.60;98949.00;;;;6160872;23;20174;-65
2023/03/08 07:50:08;;;;;;;3.67;3.57;;;2.00;99.90;3.10;98936.00;;;;6136203;23;20214;-65
2023/03/08 07:52:42;;;;;;;6.73;4.60;;;2.00;99.90;2.50;98946.00;;;;6135734;23;20159;-65
2023/03/08 07:55:17;;;;;;;5.00;4.80;;;1.90;99.90;2.80;98969.00;;;;6161187;23;20149;-66
2023/03/08 07:58:09;;;;;;;4.30;4.10;;;1.90;99.90;3.60;98963.00;;;;6185142;23;20158;-66
2023/03/08 08:00:53;;;;;;;4.80;4.60;;;1.90;99.90;3.80;98974.00;;;;6135769;23;20166;-66
2023/03/08 08:03:41;;;;;;;4.30;4.10;;;2.10;99.90;3.60;98964.00;;;;6160673;23;20178;-65
2023/03/08 08:06:18;;;;;;;6.10;5.60;;;2.20;99.90;2.70;98952.00;;;;6186756;23;20190;-65
2023/03/08 08:08:56;;;;;;;3.30;3.10;;;2.00;99.90;2.80;98947.00;;;;6186656;23;20197;-66
2023/03/08 08:11:37;;;;;;;3.57;3.47;;;1.90;99.90;3.90;98972.00;;;;6160634;23;20163;-65
2023/03/08 08:14:24;;;;;;;5.77;5.37;;;2.10;99.90;2.80;98990.00;;;;6161036;23;20140;-65
2023/03/08 08:17:13;;;;;;;5.17;4.80;;;2.00;99.90;3.10;98990.00;;;;6185529;23;20197;-65
2023/03/08 08:20:03;;;;;;;4.07;3.87;;;1.90;99.90;3.10;98991.00;;;;6135938;23;20245;-65
2023/03/08 08:22:58;;;;;;;5.77;5.47;;;1.90;99.90;3.20;98992.00;;;;6186556;23;20167;-65
2023/03/08 08:25:49;;;;;;;3.60;3.50;;;2.00;99.90;3.10;98975.00;;;;6149771;23;20159;-65
2023/03/08 08:31:48;;;;;;;5.27;4.87;;;2.20;99.90;3.10;98951.00;;;;6162219;23;20171;-64
2023/03/08 08:34:37;;;;;;;5.37;5.00;;;2.00;99.90;3.20;98941.00;;;;6142515;23;20182;-64
2023/03/08 08:37:17;;;;;;;13.03;6.37;;;2.00;99.90;2.40;98919.00;;;;6159677;23;20166;-64
2023/03/08 08:40:06;;;;;;;3.77;3.67;;;1.90;99.90;3.10;98926.00;;;;6160664;23;20602;-64
2023/03/08 08:42:58;;;;;;;4.23;4.03;;;1.90;99.90;2.90;98931.00;;;;6186314;23;20271;-64
2023/03/08 08:45:48;;;;;;;4.93;4.70;;;1.90;99.90;3.20;98923.00;;;;6066471;23;20242;-64
2023/03/08 08:48:39;;;;;;;6.53;6.13;;;1.90;99.90;3.00;98929.00;;;;6131882;23;20495;-64
2023/03/08 08:51:28;;;;;;;5.03;4.73;;;2.10;99.90;3.30;98905.00;;;;6160204;23;20579;-64
2023/03/08 08:54:17;;;;;;;6.53;6.13;;;2.20;99.90;2.80;98919.00;;;;6160226;23;20166;-64
2023/03/08 08:57:06;;;;;;;5.13;4.83;;;2.00;99.90;3.70;98912.00;;;;6186243;23;20144;-64
2023/03/08 09:00:08;;;;;;;5.67;5.27;;;2.10;99.90;2.90;98913.00;;;;6142513;23;20163;-64
2023/03/08 09:02:58;;;;;;;4.90;4.70;;;2.10;99.90;3.40;98938.00;;;;6156303;23;20614;-64
2023/03/08 09:05:56;;;;;;;3.40;3.30;;;2.10;99.90;3.50;98933.00;;;;6018277;23;20248;-64
2023/03/08 09:09:04;;;;;;;9.00;5.13;;;2.20;99.90;3.90;98920.00;;;;6042083;23;20233;-64
2023/03/08 09:11:46;;;;;;;6.63;6.13;;;2.40;99.90;3.20;98923.00;;;;6186465;23;20269;-64
2023/03/08 09:14:38;;;;;;;6.07;5.67;;;2.30;99.90;3.30;98886.00;;;;6186317;23;20153;-64
2023/03/08 09:17:27;;;;;;;5.17;4.90;;;2.10;99.90;3.30;98885.00;;;;6042528;23;20170;-64
2023/03/08 09:20:17;;;;;;;4.30;4.07;;;2.10;99.90;3.40;98875.00;;;;6155200;23;20183;-65
2023/03/08 09:23:24;;;;;;;6.63;6.23;;;2.20;99.90;3.60;98887.00;;;;6134566;23;20182;-64
2023/03/08 09:26:30;;;;;;;7.23;6.70;;;2.30;99.90;2.40;98878.00;;;;6182170;23;20167;-65
2023/03/08 09:29:26;;;;;;;9.50;6.90;;;2.00;99.90;3.10;98883.00;;;;6186081;23;20155;-64
2023/03/08 09:32:23;;;;;;;7.20;6.70;;;2.00;99.90;3.40;98900.00;;;;6147525;23;20173;-64
2023/03/08 09:34:58;;;;;;;4.50;4.23;;;2.10;99.90;3.40;98889.00;;;;6159499;23;20155;-65
2023/03/08 09:37:47;;;;;;;6.43;6.00;;;2.30;99.90;3.10;98875.00;;;;6160030;23;20155;-65
2023/03/08 09:40:51;;;;;;;6.03;5.70;;;2.20;99.90;2.80;98875.00;;;;6042548;23;20595;-65
2023/03/08 09:44:03;;;;;;;6.27;5.90;;;2.20;99.90;3.00;98872.00;;;;6184499;23;20178;-65
2023/03/08 09:47:24;;;;;;;4.57;4.33;;;2.20;99.90;3.30;98860.00;;;;6066048;23;20169;-65
2023/03/08 09:50:05;;;;;;;6.97;6.50;;;2.20;99.90;4.10;98866.00;;;;6072335;23;20197;-66
2023/03/08 09:53:12;;;;;;;10.33;9.37;;;2.50;99.90;3.70;98862.00;;;;6159439;23;20214;-65
2023/03/08 09:56:06;;;;;;;6.80;6.30;;;2.50;99.90;3.30;98874.00;;;;6178728;23;20159;-65
2023/03/08 09:58:44;;;;;;;6.63;6.20;;;2.60;99.90;3.30;98876.00;;;;6159351;23;20146;-65
2023/03/08 10:01:44;;;;;;;6.90;6.40;;;2.50;99.90;3.90;98809.00;;;;6159684;23;20166;-65
2023/03/08 10:04:21;;;;;;;6.70;6.23;;;2.60;99.90;4.10;98877.00;;;;6041118;23;20196;-65
2023/03/08 10:07:11;;;;;;;5.40;4.87;;;2.70;99.90;3.40;98867.00;;;;6065706;23;20152;-65
2023/03/08 10:10:14;;;;;;;5.47;5.27;;;2.60;99.90;3.80;98869.00;;;;6185835;23;20150;-65
2023/03/08 10:13:18;;;;;;;8.40;7.73;;;2.70;99.90;3.90;98857.00;;;;6176966;23;20538;-65
2023/03/08 10:16:19;;;;;;;5.87;5.57;;;2.80;99.90;4.00;98858.00;;;;6156178;23;20193;-64
2023/03/08 10:19:24;;;;;;;7.20;6.70;;;2.70;99.90;4.30;98832.00;;;;6159100;23;20212;-65
2023/03/08 10:34:03;;;;;;;9.93;9.13;;;1.90;99.90;3.20;98875.00;;;;5090417;27;20724;-65
2023/03/08 10:36:46;;;;;;;7.40;5.17;;;2.20;99.90;4.30;98874.00;;;;5058455;28;20213;-65
2023/03/08 10:39:51;;;;;;;4.03;3.93;;;2.60;99.90;4.50;98880.00;;;;5065994;28;20182;-65
2023/03/08 10:42:59;;;;;;;6.40;5.90;;;2.90;99.90;4.00;98879.00;;;;5045316;28;20659;-65
2023/03/08 10:45:34;;;;;;;6.30;5.87;;;2.90;99.90;4.60;98876.00;;;;5034452;28;20224;-65
2023/03/08 10:48:26;;;;;;;4.80;4.70;;;3.00;99.90;4.60;98868.00;;;;5052264;28;20185;-65
2023/03/08 10:51:59;;;;;;;6.47;6.07;;;3.10;99.90;3.90;98854.00;;;;5036638;28;20209;-65
2023/03/08 10:55:11;;;;;;;6.60;6.20;;;2.90;99.90;4.50;98843.00;;;;5051327;28;20212;-66
2023/03/08 10:58:29;;;;;;;10.40;9.70;;;2.90;99.90;4.60;98831.00;;;;5062308;28;20181;-65
2023/03/08 11:01:31;;;;;;;6.87;6.27;;;3.10;99.90;4.20;98761.00;;;;5064244;28;20185;-65
2023/03/08 11:04:19;;;;;;;7.27;6.77;;;3.10;99.90;3.90;98831.00;;;;5047192;28;20291;-65
2023/03/08 11:07:10;;;;;;;12.77;9.80;;;3.10;99.90;2.90;98803.00;;;;5033308;28;20193;-65
2023/03/08 11:10:11;;;;;;;10.27;9.13;;;2.70;99.90;3.70;98809.00;;;;5051701;28;20183;-66
2023/03/08 11:13:02;;;;;;;7.60;6.87;;;2.70;99.90;4.10;98825.00;;;;5057095;28;20341;-66
2023/03/08 11:16:28;;;;;;;7.30;6.73;;;2.90;99.90;4.40;98838.00;;;;5028039;28;20201;-66
2023/03/08 11:19:32;;;;;;;8.33;7.57;;;3.10;99.90;4.20;98759.00;;;;5051502;28;20178;-66
2023/03/08 11:22:28;;;;;;;6.47;5.97;;;3.10;99.90;4.90;98847.00;;;;5050308;28;20207;-67
2023/03/08 11:25:28;;;;;;;6.47;5.97;;;3.30;99.90;4.00;98830.00;;;;5046081;28;20184;-68
2023/03/08 11:28:24;;;;;;;5.73;5.33;;;3.00;99.90;4.40;98845.00;;;;5065723;28;20185;-67
2023/03/08 11:31:20;;;;;;;4.30;4.00;;;3.10;99.90;4.60;98851.00;;;;5068861;28;20542;-68
2023/03/08 11:34:49;;;;;;;5.53;5.13;;;3.20;99.90;4.80;98891.00;;;;5065240;28;20251;-68
2023/03/08 11:38:02;;;;;;;5.67;5.27;;;3.20;99.90;5.10;98858.00;;;;5004442;28;20312;-66
2023/03/08 11:41:05;;;;;;;7.40;6.90;;;3.40;99.90;4.70;98854.00;;;;4987044;28;20199;-68
2023/03/08 11:44:09;;;;;;;5.40;4.93;;;3.50;99.90;4.80;98856.00;;;;4965427;28;20197;-68
2023/03/08 11:50:24;;;;;;;6.63;6.00;;;3.20;99.90;4.70;98861.00;;;;4974748;28;20638;-67
2023/03/08 11:53:14;;;;;;;4.73;4.43;;;3.30;99.90;4.90;98858.00;;;;4963183;28;20299;-67
2023/03/08 11:56:07;;;;;;;9.97;9.07;;;3.40;99.90;4.00;98768.00;;;;4967085;28;20200;-67
2023/03/08 11:59:15;;;;;;;5.10;4.80;;;3.30;99.90;4.90;98776.00;;;;4974309;28;20600;-67
2023/03/08 12:02:05;;;;;;;5.73;5.43;;;3.30;99.90;4.80;98846.00;;;;4958460;28;20301;-67
2023/03/08 12:05:07;;;;;;;10.47;9.40;;;3.40;99.90;4.50;98840.00;;;;4974401;28;20392;-67
2023/03/08 12:12:22;;;;;;;9.90;8.90;;;3.40;99.90;5.00;98830.00;;;;4976875;28;20204;-67
2023/03/08 12:15:14;;;;;;;7.83;7.07;;;3.40;99.90;4.90;98755.00;;;;4973489;28;20189;-67
2023/03/08 12:18:11;;;;;;;10.50;9.53;;;3.50;99.90;4.50;98833.00;;;;4974011;28;20681;-67
2023/03/08 12:21:27;;;;;;;4.73;4.50;;;3.50;99.90;4.30;98828.00;;;;4974265;28;20292;-67
2023/03/08 12:24:14;;;;;;;4.27;4.00;;;3.50;99.90;4.60;98828.00;;;;4965357;28;20232;-67
2023/03/08 12:27:11;;;;;;;4.50;4.30;;;3.40;99.90;4.70;98807.00;;;;5033477;28;20286;-67
2023/03/08 12:30:08;;;;;;;10.80;9.70;;;3.50;99.90;4.30;98819.00;;;;5054112;28;20189;-67
2023/03/08 12:33:19;;;;;;;6.13;5.73;;;3.40;99.90;4.00;98825.00;;;;5054689;28;20533;-67
2023/03/08 12:36:39;;;;;;;8.00;7.23;;;3.30;99.90;4.70;98814.00;;;;5034123;28;20715;-67
2023/03/08 12:39:35;;;;;;;10.43;9.40;;;3.30;99.90;4.30;98815.00;;;;4985994;28;20204;-67
2023/03/08 12:42:09;;;;;;;6.73;6.23;;;3.40;99.90;4.40;98815.00;;;;4984315;28;20678;-68
2023/03/08 12:45:07;;;;;;;7.43;6.73;;;3.30;99.90;4.60;98826.00;;;;4993125;28;20192;-67
2023/03/08 12:48:17;;;;;;;3.70;3.47;;;3.50;99.90;5.30;98821.00;;;;4989902;28;20706;-67
2023/03/08 12:54:48;;;;;;;6.90;6.60;;;3.60;99.90;5.40;98818.00;;;;5052866;28;20194;-67
2023/03/08 12:58:16;;;;;;;5.30;5.00;;;3.60;99.90;4.80;98834.00;;;;5053850;28;20182;-67
2023/03/08 13:01:37;;;;;;;6.33;5.97;;;3.70;99.90;5.00;98826.00;;;;5020019;28;20200;-67
2023/03/08 13:04:26;;;;;;;10.20;8.87;;;3.70;99.90;5.10;98833.00;;;;5044011;28;20636;-67
2023/03/08 13:07:10;;;;;;;5.63;5.23;;;3.60;99.90;5.80;98841.00;;;;5030865;28;20198;-67
2023/03/08 13:10:58;;;;;;;5.80;5.40;;;3.80;99.90;6.00;98758.00;;;;5053958;28;20186;-66
2023/03/08 13:14:28;;;;;;;6.97;6.60;;;4.00;99.90;6.40;98831.00;;;;4992464;28;20211;-67
2023/03/08 13:17:29;;;;;;;7.53;7.07;;;4.20;99.90;6.70;98836.00;;;;4928988;29;20201;-67
2023/03/08 13:20:31;;;;;;;6.17;5.60;;;4.40;99.90;5.60;98763.00;;;;4939878;29;20235;-67
2023/03/08 13:23:33;;;;;;;7.03;6.70;;;4.30;99.90;6.50;98847.00;;;;4935575;29;20457;-67
2023/03/08 13:26:10;;;;;;;13.03;12.03;;;4.40;99.90;5.80;98813.00;;;;4937737;29;20276;-67
2023/03/08 13:29:07;;;;;;;12.57;11.57;;;4.20;99.90;4.90;98833.00;;;;4953539;29;20201;-67
2023/03/08 13:32:06;;;;;;;6.37;6.07;;;3.90;99.90;5.70;98834.00;;;;4935164;29;20261;-67
2023/03/08 13:35:49;;;;;;;6.87;6.37;;;4.00;99.90;5.60;98836.00;;;;4933871;29;20205;-67
2023/03/08 13:39:07;;;;;;;6.63;6.07;;;3.80;99.90;4.90;98848.00;;;;4939424;29;20202;-67
2023/03/08 13:42:27;;;;;;;6.07;5.67;;;3.90;99.90;5.50;98830.00;;;;4951822;29;20205;-66
2023/03/08 13:45:55;;;;;;;3.70;3.60;;;3.60;99.90;5.30;98847.00;;;;4982444;28;20202;-67
2023/03/08 13:49:08;;;;;;;6.33;6.03;;;4.10;99.90;5.90;98853.00;;;;4989560;28;20291;-66
2023/03/08 13:52:20;;;;;;;7.60;7.03;;;4.00;99.90;4.90;98833.00;;;;5032127;28;20217;-66
2023/03/08 13:55:37;;;;;;;5.43;5.13;;;3.80;99.90;5.90;98843.00;;;;5020176;28;20226;-66
2023/03/08 13:59:42;;;;;;;6.47;5.97;;;4.00;99.90;5.20;98834.00;;;;5031511;28;20194;-67
2023/03/08 14:02:51;;;;;;;10.03;9.33;;;3.90;99.90;5.40;98826.00;;;;4959970;28;20284;-66
2023/03/08 14:06:12;;;;;;;7.63;6.97;;;3.80;99.90;4.40;98815.00;;;;4949706;28;20236;-66
2023/03/08 14:09:21;;;;;;;8.00;7.37;;;3.50;99.90;5.20;98809.00;;;;4955882;28;20247;-67
2023/03/08 14:12:35;;;;;;;6.57;6.00;;;3.60;99.90;4.70;98811.00;;;;5007216;28;20563;-66
2023/03/08 14:15:42;;;;;;;9.67;7.93;;;3.60;99.90;4.70;98805.00;;;;5027216;28;20629;-67
2023/03/08 14:18:51;;;;;;;4.70;4.53;;;3.60;99.90;5.40;98805.00;;;;5050710;28;20185;-67
2023/03/08 14:22:12;;;;;;;6.38;5.90;;;3.60;99.90;5.20;98766.00;;;;5050266;28;20427;-66
2023/03/08 14:25:24;;;;;;;7.27;6.77;;;3.70;99.90;5.20;98821.00;;;;5032149;28;20178;-66
2023/03/08 14:28:48;;;;;;;4.37;4.17;;;3.80;99.90;5.50;98826.00;;;;5033367;28;20257;-66
2023/03/08 14:32:01;;;;;;;7.50;7.10;;;3.80;99.90;5.10;98838.00;;;;5035373;28;20194;-66
2023/03/08 14:34:41;;;;;;;6.57;6.17;;;3.90;99.90;5.10;98818.00;;;;5049398;28;20689;-67
2023/03/08 14:37:43;;;;;;;9.10;8.23;;;3.80;99.90;4.80;98824.00;;;;5046821;28;20222;-66
2023/03/08 14:40:50;;;;;;;4.37;4.23;;;3.70;99.90;5.40;98813.00;;;;5052151;28;20239;-66
2023/03/08 14:43:37;;;;;;;7.03;6.43;;;3.90;99.90;4.50;98793.00;;;;5021406;28;20197;-66
2023/03/08 14:46:57;;;;;;;9.83;8.77;;;3.50;99.90;5.00;98811.00;;;;5048067;28;20186;-66
2023/03/08 14:53:29;;;;;;;12.80;11.60;;;3.50;99.90;5.10;98806.00;;;;5051656;28;20213;-66
2023/03/08 14:56:38;;;;;;;6.73;6.23;;;3.50;99.90;4.80;98812.00;;;;5051994;28;20186;-66
2023/03/08 14:59:49;;;;;;;7.20;6.63;;;3.40;99.90;4.90;98801.00;;;;5019925;28;20268;-66
2023/03/08 15:03:00;;;;;;;7.27;6.63;;;3.50;99.90;4.80;98804.00;;;;5038708;28;20194;-67
2023/03/08 15:06:14;;;;;;;3.60;3.50;;;3.70;99.90;5.60;98801.00;;;;5031441;28;20191;-67
2023/03/08 15:12:48;;;;;;;10.13;9.40;;;3.70;99.90;5.70;98793.00;;;;5037496;28;20267;-67
2023/03/08 15:15:54;;;;;;;11.93;10.80;;;3.80;99.90;5.30;98814.00;;;;5050086;28;20188;-67
2023/03/08 15:19:00;;;;;;;5.77;5.50;;;3.70;99.90;5.40;98812.00;;;;5034568;28;20206;-68
2023/03/08 15:22:09;;;;;;;6.30;6.03;;;3.90;99.90;5.00;98792.00;;;;5035619;28;20189;-68
2023/03/08 15:25:33;;;;;;;6.27;5.77;;;3.80;99.90;4.90;98769.00;;;;5023716;28;20197;-68
2023/03/08 15:28:57;;;;;;;8.40;7.93;;;3.50;99.90;4.50;98797.00;;;;5038631;28;20202;-68
2023/03/08 15:32:01;;;;;;;11.90;9.80;;;3.50;99.90;4.40;98776.00;;;;5025442;28;20190;-68
2023/03/08 15:34:57;;;;;;;11.63;10.47;;;3.30;99.90;4.60;98797.00;;;;5038519;28;20187;-68
2023/03/08 15:37:51;;;;;;;7.60;7.00;;;3.40;99.90;4.40;98800.00;;;;5038130;28;20185;-68
2023/03/08 15:40:46;;;;;;;9.40;8.53;;;3.30;99.90;4.80;98784.00;;;;5038294;28;20185;-68
2023/03/08 15:43:42;;;;;;;4.00;3.90;;;3.40;99.90;5.00;98768.00;;;;5047951;28;20186;-68
2023/03/08 15:46:41;;;;;;;7.73;7.20;;;3.50;99.90;5.60;98726.00;;;;5021165;28;20178;-66
2023/03/08 15:49:53;;;;;;;6.77;6.40;;;3.80;99.90;5.30;98778.00;;;;5050870;28;20194;-68
2023/03/08 15:52:42;;;;;;;5.70;5.50;;;3.80;99.90;5.50;98778.00;;;;5029813;28;20221;-68
2023/03/08 15:55:32;;;;;;;7.90;7.30;;;3.80;99.90;4.90;98764.00;;;;5037834;28;20228;-68
2023/03/08 15:58:57;;;;;;;6.70;6.40;;;3.90;99.90;4.60;98778.00;;;;5048734;28;20182;-68
2023/03/08 16:02:03;;;;;;;3.77;3.67;;;3.60;99.90;5.60;98795.00;;;;5033886;28;20244;-68
2023/03/08 16:05:05;;;;;;;5.70;5.30;;;3.80;99.90;6.20;98800.00;;;;5054373;28;20217;-68
2023/03/08 16:08:09;;;;;;;6.73;6.33;;;3.90;99.90;5.90;98786.00;;;;5037452;28;20185;-67
2023/03/08 16:11:21;;;;;;;4.20;4.10;;;4.10;99.90;6.00;98787.00;;;;5051280;28;20194;-67
2023/03/08 16:14:27;;;;;;;6.30;5.90;;;4.10;99.90;5.80;98792.00;;;;5050463;28;20503;-67
2023/03/08 16:17:34;;;;;;;7.87;7.27;;;3.90;99.90;5.00;98771.00;;;;5047743;28;20181;-68
2023/03/08 16:20:40;;;;;;;7.73;7.07;;;3.70;99.90;5.00;98786.00;;;;5034317;28;20186;-68
2023/03/08 16:23:54;;;;;;;4.83;4.63;;;3.60;99.90;5.50;98768.00;;;;5028866;28;20737;-67
2023/03/08 16:26:53;;;;;;;6.17;5.67;;;3.70;99.90;5.80;98782.00;;;;5011952;28;20217;-67
2023/03/08 16:30:03;;;;;;;7.90;7.40;;;3.80;99.90;5.80;98799.00;;;;5037383;28;20184;-67
2023/03/08 16:32:45;;;;;;;6.10;5.80;;;3.90;99.90;5.40;98797.00;;;;5036943;28;20214;-67
2023/03/08 16:35:52;;;;;;;8.60;6.60;;;3.90;99.90;5.10;98783.00;;;;5037174;28;20186;-67
2023/03/08 16:41:54;;;;;;;3.67;3.57;;;3.60;99.90;5.50;98751.00;;;;5038977;28;20227;-67
2023/03/08 16:44:47;;;;;;;5.40;4.80;;;3.80;99.90;5.80;98759.00;;;;5020186;28;20202;-67
2023/03/08 16:47:48;;;;;;;5.73;5.33;;;3.90;99.90;5.20;98675.00;;;;5031203;28;20190;-67
2023/03/08 16:51:01;;;;;;;14.57;11.70;;;4.00;99.90;5.20;98743.00;;;;5049484;28;20213;-67
2023/03/08 16:54:11;;;;;;;3.60;3.50;;;3.70;99.90;6.00;98746.00;;;;5044518;28;20232;-67
2023/03/08 16:57:16;;;;;;;8.43;7.57;;;3.90;99.90;4.70;98745.00;;;;5008337;28;20213;-67
2023/03/08 17:00:38;;;;;;;16.07;10.33;;;3.80;99.90;4.20;98746.00;;;;5024053;28;20580;-67
2023/03/08 17:03:31;;;;;;;9.37;8.50;;;3.50;99.90;3.80;98720.00;;;;5048829;28;20281;-67
2023/03/08 17:06:32;;;;;;;9.53;8.83;;;3.10;99.90;4.70;98729.00;;;;5053026;28;20186;-67
2023/03/08 17:09:33;;;;;;;12.23;10.33;;;3.40;99.90;3.70;98712.00;;;;5053101;28;20193;-67
2023/03/08 17:12:27;;;;;;;4.87;4.57;;;3.10;99.90;5.20;98721.00;;;;5053921;28;20204;-67
2023/03/08 17:15:33;;;;;;;3.53;3.43;;;3.30;99.90;5.80;98735.00;;;;5036744;28;20248;-67
2023/03/08 17:18:52;;;;;;;8.20;7.47;;;3.50;99.90;4.50;98709.00;;;;5044938;28;20283;-67
2023/03/08 17:22:03;;;;;;;14.23;11.23;;;3.60;99.90;4.90;98693.00;;;;5054095;28;20193;-67
2023/03/08 17:25:27;;;;;;;8.17;7.43;;;3.40;99.90;4.70;98702.00;;;;5035482;28;20198;-67
2023/03/08 17:28:25;;;;;;;3.70;3.53;;;3.40;99.90;4.80;98704.00;;;;5048771;28;20182;-67
2023/03/08 17:31:29;;;;;;;2.87;2.77;;;3.40;99.90;4.20;98716.00;;;;5037010;28;20185;-67
2023/03/08 17:34:32;;;;;;;9.73;8.87;;;3.30;99.90;5.10;98699.00;;;;5030913;28;20267;-67
2023/03/08 17:37:31;;;;;;;9.63;8.80;;;3.40;99.90;4.60;98691.00;;;;5040612;28;20178;-67
2023/03/08 17:40:23;;;;;;;12.13;8.07;;;3.40;99.90;3.90;98679.00;;;;5048224;28;20194;-67
2023/03/08 17:43:26;;;;;;;4.70;4.40;;;3.10;99.90;5.20;98706.00;;;;5035454;28;20182;-67
2023/03/08 17:46:53;;;;;;;5.53;5.23;;;3.30;99.90;4.50;98713.00;;;;5053552;28;20186;-67
2023/03/08 17:50:21;;;;;;;6.73;6.13;;;3.60;99.90;4.60;98692.00;;;;5045006;28;20228;-66
2023/03/08 17:53:34;;;;;;;5.70;5.20;;;3.50;99.90;4.80;98702.00;;;;5048277;28;20263;-66
2023/03/08 17:56:39;;;;;;;5.20;5.00;;;3.50;99.90;5.30;98716.00;;;;5048237;28;20174;-66
2023/03/08 17:59:54;;;;;;;3.67;3.57;;;3.50;99.90;5.20;98720.00;;;;5049286;28;20201;-66
2023/03/08 18:03:03;;;;;;;4.30;3.93;;;3.60;99.90;5.00;98628.00;;;;5014632;28;20264;-66
2023/03/08 18:05:57;;;;;;;9.93;8.95;;;3.40;99.90;4.60;98696.00;;;;5051159;28;20420;-66
2023/03/08 18:09:09;;;;;;;11.10;9.83;;;3.40;99.90;4.70;98702.00;;;;5031116;28;20197;-67
2023/03/08 18:12:16;;;;;;;9.03;8.20;;;3.40;99.90;4.90;98730.00;;;;5032033;28;20872;-67
2023/03/08 18:15:20;;;;;;;13.13;11.50;;;3.50;99.90;3.60;98711.00;;;;5035766;28;20660;-66
2023/03/08 18:18:26;;;;;;;9.27;7.53;;;3.10;99.90;3.40;98726.00;;;;5034996;28;20201;-67
2023/03/08 18:21:35;;;;;;;5.90;4.87;;;2.90;99.90;4.70;98728.00;;;;5051198;28;20321;-67
2023/03/08 18:24:41;;;;;;;11.97;9.90;;;3.10;99.90;4.00;98720.00;;;;5035467;28;20190;-67
2023/03/08 18:28:20;;;;;;;7.27;6.53;;;3.10;99.90;4.70;98710.00;;;;5019225;28;20189;-67
2023/03/08 18:31:39;;;;;;;3.97;3.77;;;3.20;99.90;3.80;98718.00;;;;5036041;28;20197;-67
2023/03/08 18:34:48;;;;;;;9.63;8.70;;;3.00;99.90;3.90;98625.00;;;;5034593;28;20565;-67
2023/03/08 18:37:55;;;;;;;9.17;8.30;;;2.90;99.90;3.90;98732.00;;;;5035132;28;20182;-67
2023/03/08 18:41:09;;;;;;;6.43;6.07;;;3.10;99.90;4.80;98735.00;;;;5033876;28;20185;-67
2023/03/08 18:44:31;;;;;;;5.37;4.60;;;3.30;99.90;4.90;98735.00;;;;5050397;28;20217;-67
2023/03/08 18:47:36;;;;;;;5.10;4.83;;;3.30;99.90;5.30;98740.00;;;;5036180;28;20178;-67
2023/03/08 18:50:47;;;;;;;6.33;5.93;;;3.50;99.90;5.00;98734.00;;;;5013757;28;20197;-67
2023/03/08 18:57:43;;;;;;;9.77;8.73;;;3.40;99.90;4.50;98721.00;;;;5038025;28;20194;-67
2023/03/08 19:00:55;;;;;;;5.40;5.10;;;3.20;99.90;4.80;98729.00;;;;5023876;28;20208;-67
2023/03/08 19:04:04;;;;;;;8.60;7.90;;;3.30;99.90;5.10;98725.00;;;;5048744;28;20186;-67
2023/03/08 19:07:11;;;;;;;5.63;5.20;;;3.40;99.90;5.10;98728.00;;;;5046073;28;20287;-68
2023/03/08 19:10:05;;;;;;;4.17;3.97;;;3.50;99.90;4.30;98726.00;;;;5038985;28;20194;-68
2023/03/08 19:13:01;;;;;;;6.00;5.70;;;3.30;99.90;4.70;98624.00;;;;5039013;28;20214;-67
2023/03/08 19:16:15;;;;;;;4.60;4.40;;;3.30;99.90;5.20;98710.00;;;;5053113;28;20186;-67
2023/03/08 19:19:33;;;;;;;12.00;10.73;;;3.50;99.90;4.40;98672.00;;;;5052793;28;20571;-67
2023/03/08 19:22:27;;;;;;;9.23;5.43;;;3.40;99.90;4.40;98700.00;;;;5052615;28;20244;-67
2023/03/08 19:25:17;;;;;;;7.27;6.43;;;3.30;99.90;4.40;98685.00;;;;5051002;28;20190;-67
2023/03/08 19:28:21;;;;;;;7.73;7.07;;;3.10;99.90;5.00;98610.00;;;;5039292;28;20186;-67
2023/03/08 19:31:15;;;;;;;8.43;7.40;;;3.40;99.90;4.60;98697.00;;;;5052187;28;20186;-67
2023/03/08 19:34:28;;;;;;;4.17;3.90;;;3.30;99.90;4.50;98686.00;;;;5030886;28;20201;-67
2023/03/08 19:37:31;;;;;;;10.73;9.33;;;3.10;99.90;4.10;98685.00;;;;5035533;28;20190;-67
2023/03/08 19:40:41;;;;;;;15.00;12.17;;;3.00;99.90;3.60;98678.00;;;;5030839;28;20198;-67
2023/03/08 19:43:45;;;;;;;7.60;7.03;;;3.00;99.90;3.70;98686.00;;;;5038272;28;20181;-67
2023/03/08 19:46:49;;;;;;;8.20;7.40;;;2.80;99.90;4.10;98677.00;;;;5038348;28;20261;-67
2023/03/08 19:50:17;;;;;;;3.47;3.27;;;3.00;99.90;4.50;98672.00;;;;5052354;28;20178;-67
2023/03/08 19:53:22;;;;;;;6.93;6.40;;;3.00;99.90;4.20;98677.00;;;;5037556;28;20206;-67
2023/03/08 19:56:34;;;;;;;8.87;7.13;;;3.00;99.90;4.10;98652.00;;;;5038375;28;20201;-67
2023/03/08 19:59:43;;;;;;;5.73;5.23;;;3.10;99.90;5.10;98644.00;;;;5037321;28;20270;-67
2023/03/08 20:02:49;;;;;;;10.47;9.33;;;3.30;99.90;4.70;98660.00;;;;5037157;28;20206;-67
2023/03/08 20:06:39;;;;;;;4.30;4.10;;;3.30;99.90;4.10;98658.00;;;;5037194;28;20186;-67
2023/03/08 20:09:50;;;;;;;8.67;7.77;;;3.10;99.90;3.90;98662.00;;;;5042564;28;20201;-67
2023/03/08 20:13:04;;;;;;;7.80;7.13;;;3.00;99.90;4.00;98669.00;;;;5030242;28;20566;-67
2023/03/08 20:16:26;;;;;;;4.75;3.97;;;3.00;99.90;4.50;98677.00;;;;5054898;28;20452;-67
2023/03/08 20:19:32;;;;;;;5.43;4.87;;;3.30;99.90;3.80;98664.00;;;;5052146;28;20293;-67
2023/03/08 20:22:25;;;;;;;9.67;8.83;;;3.20;99.90;4.10;98642.00;;;;5030637;28;20201;-67
2023/03/08 20:25:24;;;;;;;6.50;6.10;;;3.00;99.90;4.90;98671.00;;;;5053914;28;20198;-67
2023/03/08 20:28:18;;;;;;;6.00;5.60;;;3.30;99.90;4.20;98662.00;;;;5030444;28;20193;-67
2023/03/08 20:31:28;;;;;;;14.60;10.13;;;3.20;99.90;4.10;98671.00;;;;5022898;28;20202;-67
2023/03/08 20:34:37;;;;;;;10.57;7.33;;;3.00;99.90;4.00;98675.00;;;;5024614;28;20213;-66
2023/03/08 20:37:43;;;;;;;6.03;5.53;;;3.00;99.90;4.80;98663.00;;;;5034488;28;20198;-67
2023/03/08 20:40:59;;;;;;;6.83;6.20;;;3.20;99.90;4.40;98658.00;;;;5037089;28;20540;-67
2023/03/08 20:44:12;;;;;;;5.00;4.20;;;3.30;99.90;4.60;98648.00;;;;5054624;28;20659;-66
2023/03/08 20:47:33;;;;;;;7.80;7.10;;;3.30;99.90;4.40;98653.00;;;;5036622;28;20220;-66
2023/03/08 20:50:28;;;;;;;4.93;4.50;;;3.30;99.90;4.50;98673.00;;;;5027763;28;20190;-66
2023/03/08 20:53:53;;;;;;;3.83;3.13;;;3.20;99.90;4.90;98673.00;;;;5020108;28;20222;-66
2023/03/08 20:56:54;;;;;;;6.90;6.20;;;3.30;99.90;4.90;98643.00;;;;5053147;28;20194;-67
